sensor_id;sensor_type;location;lat;lon;timestamp;pressure;altitude;pressure_sealevel;temperature;humidity
28310;BME280;15571;50.974;13.936;2024-02-23T00:01:40;97471.69;;;13.38;100.00
28310;BME280;15571;50.974;13.936;2024-02-23T00:04:43;97484.81;;;13.38;100.00
28310;BME280;15571;50.974;13.936;2024-02-23T00:07:45;97500.72;;;13.51;100.00
28310;BME280;15571;50.974;13.936;2024-02-23T00:10:47;97502.97;;;13.43;100.00
28310;BME280;15571;50.974;13.936;2024-02-23T00:13:49;97522.75;;;13.49;100.00
28310;BME280;15571;50.974;13.936;2024-02-23T00:16:50;97524.66;;;13.47;100.00
28310;BME280;15571;50.974;13.936;2024-02-23T00:19:54;97525.13;;;13.53;100.00
28310;BME280;15571;50.974;13.936;2024-02-23T00:22:58;97521.75;;;13.51;100.00
28310;BME280;15571;50.974;13.936;2024-02-23T00:26:00;97507.19;;;13.60;100.00
28310;BME280;15571;50.974;13.936;2024-02-23T00:29:02;97510.28;;;13.52;100.00
28310;BME280;15571;50.974;13.936;2024-02-23T00:32:04;97516.50;;;13.51;100.00
28310;BME280;15571;50.974;13.936;2024-02-23T00:35:08;97509.34;;;13.53;100.00
28310;BME280;15571;50.974;13.936;2024-02-23T00:38:10;97511.25;;;13.51;100.00
28310;BME280;15571;50.974;13.936;2024-02-23T00:41:13;97515.81;;;13.48;100.00
28310;BME280;15571;50.974;13.936;2024-02-23T00:44:15;97522.59;;;13.52;100.00
28310;BME280;15571;50.974;13.936;2024-02-23T00:47:17;97520.34;;;13.60;100.00
28310;BME280;15571;50.974;13.936;2024-02-23T00:50:21;97518.16;;;13.52;100.00
28310;BME280;15571;50.974;13.936;2024-02-23T00:53:24;97509.16;;;13.57;100.00
28310;BME280;15571;50.974;13.936;2024-02-23T00:56:26;97500.91;;;13.63;100.00
28310;BME280;15571;50.974;13.936;2024-02-23T00:59:28;97499.22;;;13.47;100.00
28310;BME280;15571;50.974;13.936;2024-02-23T01:02:30;97497.13;;;13.52;100.00
28310;BME280;15571;50.974;13.936;2024-02-23T01:05:33;97498.28;;;13.48;100.00
28310;BME280;15571;50.974;13.936;2024-02-23T01:08:35;97489.53;;;13.48;100.00
28310;BME280;15571;50.974;13.936;2024-02-23T01:11:37;97484.28;;;13.48;100.00
28310;BME280;15571;50.974;13.936;2024-02-23T01:14:39;97483.63;;;13.44;100.00
28310;BME280;15571;50.974;13.936;2024-02-23T01:17:41;97499.59;;;13.41;100.00
28310;BME280;15571;50.974;13.936;2024-02-23T01:20:44;97533.00;;;13.39;100.00
28310;BME280;15571;50.974;13.936;2024-02-23T01:23:46;97548.38;;;13.45;100.00
28310;BME280;15571;50.974;13.936;2024-02-23T01:26:48;97551.94;;;13.44;100.00
28310;BME280;15571;50.974;13.936;2024-02-23T01:29:50;97558.72;;;13.48;100.00
28310;BME280;15571;50.974;13.936;2024-02-23T01:32:52;97569.78;;;13.53;100.00
28310;BME280;15571;50.974;13.936;2024-02-23T01:35:55;97569.25;;;13.48;100.00
28310;BME280;15571;50.974;13.936;2024-02-23T01:38:58;97561.53;;;13.45;100.00
28310;BME280;15571;50.974;13.936;2024-02-23T01:42:00;97586.78;;;13.48;100.00
28310;BME280;15571;50.974;13.936;2024-02-23T01:45:02;97596.72;;;13.57;100.00
28310;BME280;15571;50.974;13.936;2024-02-23T01:48:08;97586.31;;;13.56;100.00
28310;BME280;15571;50.974;13.936;2024-02-23T01:51:11;97594.59;;;13.49;100.00
28310;BME280;15571;50.974;13.936;2024-02-23T01:54:14;97605.38;;;13.45;100.00
28310;BME280;15571;50.974;13.936;2024-02-23T01:57:16;97587.75;;;13.47;100.00
28310;BME280;15571;50.974;13.936;2024-02-23T02:00:18;97595.03;;;13.42;100.00
28310;BME280;15571;50.974;13.936;2024-02-23T02:03:28;97611.56;;;13.44;100.00
28310;BME280;15571;50.974;13.936;2024-02-23T02:06:31;97607.06;;;13.46;100.00
28310;BME280;15571;50.974;13.936;2024-02-23T02:09:33;97618.69;;;13.42;100.00
28310;BME280;15571;50.974;13.936;2024-02-23T02:12:35;97637.47;;;13.34;100.00
28310;BME280;15571;50.974;13.936;2024-02-23T02:15:37;97637.69;;;13.31;100.00
28310;BME280;15571;50.974;13.936;2024-02-23T02:18:39;97669.78;;;13.36;100.00
28310;BME280;15571;50.974;13.936;2024-02-23T02:21:42;97673.16;;;13.38;100.00
28310;BME280;15571;50.974;13.936;2024-02-23T02:24:44;97671.13;;;13.43;100.00
28310;BME280;15571;50.974;13.936;2024-02-23T02:27:48;97680.81;;;13.43;100.00
28310;BME280;15571;50.974;13.936;2024-02-23T02:30:50;97678.41;;;13.38;100.00
28310;BME280;15571;50.974;13.936;2024-02-23T02:33:53;97675.19;;;13.33;100.00
28310;BME280;15571;50.974;13.936;2024-02-23T02:36:56;97685.69;;;13.33;100.00
28310;BME280;15571;50.974;13.936;2024-02-23T02:40:00;97679.50;;;13.34;100.00
28310;BME280;15571;50.974;13.936;2024-02-23T02:43:02;97699.03;;;13.30;100.00
28310;BME280;15571;50.974;13.936;2024-02-23T02:46:04;97694.72;;;13.29;100.00
28310;BME280;15571;50.974;13.936;2024-02-23T02:49:06;97698.28;;;13.28;100.00
28310;BME280;15571;50.974;13.936;2024-02-23T02:52:09;97689.84;;;13.37;100.00
28310;BME280;15571;50.974;13.936;2024-02-23T02:55:11;97713.66;;;13.34;100.00
28310;BME280;15571;50.974;13.936;2024-02-23T02:58:13;97714.03;;;13.28;100.00
28310;BME280;15571;50.974;13.936;2024-02-23T03:01:15;97730.81;;;13.25;100.00
28310;BME280;15571;50.974;13.936;2024-02-23T03:04:17;97727.94;;;13.30;100.00
28310;BME280;15571;50.974;13.936;2024-02-23T03:07:20;97727.94;;;13.30;100.00
28310;BME280;15571;50.974;13.936;2024-02-23T03:10:22;97731.34;;;13.32;100.00
28310;BME280;15571;50.974;13.936;2024-02-23T03:13:24;97737.50;;;13.31;100.00
28310;BME280;15571;50.974;13.936;2024-02-23T03:16:26;97741.13;;;13.28;100.00
28310;BME280;15571;50.974;13.936;2024-02-23T03:19:29;97744.03;;;13.23;100.00
28310;BME280;15571;50.974;13.936;2024-02-23T03:22:34;97766.75;;;13.24;100.00
28310;BME280;15571;50.974;13.936;2024-02-23T03:25:36;97770.28;;;13.23;100.00
28310;BME280;15571;50.974;13.936;2024-02-23T03:28:38;97779.13;;;13.22;100.00
28310;BME280;15571;50.974;13.936;2024-02-23T03:31:40;97778.63;;;13.32;100.00
28310;BME280;15571;50.974;13.936;2024-02-23T03:34:42;97793.69;;;13.28;100.00
28310;BME280;15571;50.974;13.936;2024-02-23T03:37:45;97796.31;;;13.28;100.00
28310;BME280;15571;50.974;13.936;2024-02-23T03:40:50;97806.91;;;13.27;100.00
28310;BME280;15571;50.974;13.936;2024-02-23T03:43:52;97813.72;;;13.31;100.00
28310;BME280;15571;50.974;13.936;2024-02-23T03:46:54;97807.59;;;13.30;100.00
28310;BME280;15571;50.974;13.936;2024-02-23T03:49:57;97823.88;;;13.37;100.00
28310;BME280;15571;50.974;13.936;2024-02-23T03:53:03;97824.22;;;13.31;100.00
28310;BME280;15571;50.974;13.936;2024-02-23T03:56:06;97836.69;;;13.27;100.00
28310;BME280;15571;50.974;13.936;2024-02-23T03:59:09;97846.31;;;13.27;100.00
28310;BME280;15571;50.974;13.936;2024-02-23T04:02:10;97856.22;;;13.37;100.00
28310;BME280;15571;50.974;13.936;2024-02-23T04:05:12;97876.16;;;13.26;100.00
28310;BME280;15571;50.974;13.936;2024-02-23T04:08:19;97880.13;;;13.33;100.00
28310;BME280;15571;50.974;13.936;2024-02-23T04:11:23;97890.63;;;13.33;100.00
28310;BME280;15571;50.974;13.936;2024-02-23T04:14:25;97901.06;;;13.18;100.00
28310;BME280;15571;50.974;13.936;2024-02-23T04:17:27;97922.66;;;13.23;100.00
28310;BME280;15571;50.974;13.936;2024-02-23T04:20:29;97934.47;;;12.99;100.00
28310;BME280;15571;50.974;13.936;2024-02-23T04:23:32;97942.59;;;13.28;100.00
28310;BME280;15571;50.974;13.936;2024-02-23T04:26:34;97949.13;;;13.20;100.00
28310;BME280;15571;50.974;13.936;2024-02-23T04:29:36;97950.47;;;13.28;100.00
28310;BME280;15571;50.974;13.936;2024-02-23T04:32:38;97954.56;;;13.00;100.00
28310;BME280;15571;50.974;13.936;2024-02-23T04:35:40;97966.09;;;12.97;100.00
28310;BME280;15571;50.974;13.936;2024-02-23T04:38:43;97972.31;;;12.95;100.00
28310;BME280;15571;50.974;13.936;2024-02-23T04:41:48;97971.31;;;12.80;100.00
28310;BME280;15571;50.974;13.936;2024-02-23T04:44:50;97976.50;;;12.81;100.00
28310;BME280;15571;50.974;13.936;2024-02-23T04:47:55;97977.59;;;12.77;100.00
28310;BME280;15571;50.974;13.936;2024-02-23T04:50:57;97995.63;;;12.66;100.00
28310;BME280;15571;50.974;13.936;2024-02-23T04:54:00;97997.53;;;12.64;100.00
28310;BME280;15571;50.974;13.936;2024-02-23T04:57:03;98004.84;;;12.57;100.00
28310;BME280;15571;50.974;13.936;2024-02-23T05:00:06;98027.38;;;12.61;100.00
28310;BME280;15571;50.974;13.936;2024-02-23T05:03:08;98030.06;;;12.59;100.00
28310;BME280;15571;50.974;13.936;2024-02-23T05:06:12;98033.94;;;12.52;100.00
28310;BME280;15571;50.974;13.936;2024-02-23T05:09:15;98042.63;;;12.53;100.00
28310;BME280;15571;50.974;13.936;2024-02-23T05:12:17;98054.28;;;12.47;100.00
28310;BME280;15571;50.974;13.936;2024-02-23T05:15:22;98054.59;;;12.41;100.00
28310;BME280;15571;50.974;13.936;2024-02-23T05:18:24;98072.03;;;12.42;100.00
28310;BME280;15571;50.974;13.936;2024-02-23T05:21:25;98072.81;;;12.44;100.00
28310;BME280;15571;50.974;13.936;2024-02-23T05:24:29;98075.00;;;12.34;100.00
28310;BME280;15571;50.974;13.936;2024-02-23T05:27:31;98082.53;;;12.42;100.00
28310;BME280;15571;50.974;13.936;2024-02-23T05:30:33;98077.34;;;12.40;100.00
28310;BME280;15571;50.974;13.936;2024-02-23T05:33:35;98091.31;;;12.41;100.00
28310;BME280;15571;50.974;13.936;2024-02-23T05:36:42;98091.31;;;12.41;100.00
28310;BME280;15571;50.974;13.936;2024-02-23T05:39:45;98088.97;;;12.35;100.00
28310;BME280;15571;50.974;13.936;2024-02-23T05:42:50;98091.75;;;12.32;100.00
28310;BME280;15571;50.974;13.936;2024-02-23T05:45:53;98091.97;;;12.27;100.00
28310;BME280;15571;50.974;13.936;2024-02-23T05:48:57;98094.72;;;12.24;100.00
28310;BME280;15571;50.974;13.936;2024-02-23T05:51:59;98102.50;;;12.25;100.00
28310;BME280;15571;50.974;13.936;2024-02-23T05:55:03;98105.13;;;12.25;100.00
28310;BME280;15571;50.974;13.936;2024-02-23T05:58:08;98098.56;;;12.17;100.00
28310;BME280;15571;50.974;13.936;2024-02-23T06:01:10;98104.66;;;12.17;100.00
28310;BME280;15571;50.974;13.936;2024-02-23T06:04:12;98106.47;;;12.15;100.00
28310;BME280;15571;50.974;13.936;2024-02-23T06:07:14;98109.25;;;12.12;100.00
28310;BME280;15571;50.974;13.936;2024-02-23T06:10:18;98109.47;;;12.07;100.00
28310;BME280;15571;50.974;13.936;2024-02-23T06:13:20;98121.94;;;12.02;100.00
28310;BME280;15571;50.974;13.936;2024-02-23T06:16:23;98126.56;;;11.95;100.00
28310;BME280;15571;50.974;13.936;2024-02-23T06:19:25;98126.72;;;11.92;100.00
28310;BME280;15571;50.974;13.936;2024-02-23T06:22:27;98147.53;;;11.95;100.00
28310;BME280;15571;50.974;13.936;2024-02-23T06:25:33;98155.56;;;11.92;100.00
28310;BME280;15571;50.974;13.936;2024-02-23T06:28:38;98153.19;;;11.86;100.00
28310;BME280;15571;50.974;13.936;2024-02-23T06:31:42;98160.81;;;11.92;100.00
28310;BME280;15571;50.974;13.936;2024-02-23T06:34:49;98153.19;;;11.86;100.00
28310;BME280;15571;50.974;13.936;2024-02-23T06:37:51;98165.53;;;11.84;100.00
28310;BME280;15571;50.974;13.936;2024-02-23T06:40:54;98167.38;;;11.82;100.00
28310;BME280;15571;50.974;13.936;2024-02-23T06:43:56;98160.50;;;11.79;100.00
28310;BME280;15571;50.974;13.936;2024-02-23T06:46:58;98166.66;;;11.78;100.00
28310;BME280;15571;50.974;13.936;2024-02-23T06:50:04;98177.19;;;11.77;100.00
28310;BME280;15571;50.974;13.936;2024-02-23T06:53:06;98162.38;;;11.76;100.00
28310;BME280;15571;50.974;13.936;2024-02-23T06:56:09;98164.22;;;11.74;100.00
28310;BME280;15571;50.974;13.936;2024-02-23T06:59:12;98181.78;;;11.72;100.00
28310;BME280;15571;50.974;13.936;2024-02-23T07:02:16;98178.09;;;11.76;100.00
28310;BME280;15571;50.974;13.936;2024-02-23T07:05:18;98171.94;;;11.77;100.00
28310;BME280;15571;50.974;13.936;2024-02-23T07:08:20;98164.22;;;11.74;100.00
28310;BME280;15571;50.974;13.936;2024-02-23T07:11:24;98160.69;;;11.75;100.00
28310;BME280;15571;50.974;13.936;2024-02-23T07:14:26;98157.78;;;11.81;100.00
28310;BME280;15571;50.974;13.936;2024-02-23T07:17:28;98181.09;;;11.87;100.00
28310;BME280;15571;50.974;13.936;2024-02-23T07:20:30;98190.63;;;11.90;100.00
28310;BME280;15571;50.974;13.936;2024-02-23T07:23:32;98203.75;;;11.90;100.00
28310;BME280;15571;50.974;13.936;2024-02-23T07:26:35;98208.78;;;11.94;100.00
28310;BME280;15571;50.974;13.936;2024-02-23T07:29:37;98221.91;;;11.94;100.00
28310;BME280;15571;50.974;13.936;2024-02-23T07:32:39;98227.91;;;11.96;100.00
28310;BME280;15571;50.974;13.936;2024-02-23T07:35:41;98236.69;;;11.95;100.00
28310;BME280;15571;50.974;13.936;2024-02-23T07:38:43;98234.06;;;11.95;100.00
28310;BME280;15571;50.974;13.936;2024-02-23T07:41:46;98241.16;;;11.93;100.00
28310;BME280;15571;50.974;13.936;2024-02-23T07:44:48;98240.84;;;12.01;100.00
28310;BME280;15571;50.974;13.936;2024-02-23T07:47:54;98257.56;;;11.98;100.00
28310;BME280;15571;50.974;13.936;2024-02-23T07:51:02;98250.09;;;12.10;100.00
28310;BME280;15571;50.974;13.936;2024-02-23T07:54:04;98265.72;;;12.13;100.00
28310;BME280;15571;50.974;13.936;2024-02-23T07:57:07;98269.97;;;12.16;100.00
28310;BME280;15571;50.974;13.936;2024-02-23T08:00:09;98281.88;;;12.23;100.00
28310;BME280;15571;50.974;13.936;2024-02-23T08:03:12;98280.88;;;12.25;100.00
28310;BME280;15571;50.974;13.936;2024-02-23T08:06:15;98283.59;;;12.24;100.00
28310;BME280;15571;50.974;13.936;2024-02-23T08:09:17;98297.41;;;12.27;100.00
28310;BME280;15571;50.974;13.936;2024-02-23T08:12:24;98307.66;;;12.34;100.00
28310;BME280;15571;50.974;13.936;2024-02-23T08:15:26;98309.69;;;12.27;100.00
28310;BME280;15571;50.974;13.936;2024-02-23T08:18:27;98305.38;;;12.26;100.00
28310;BME280;15571;50.974;13.936;2024-02-23T08:21:29;98308.81;;;12.26;100.00
28310;BME280;15571;50.974;13.936;2024-02-23T08:24:31;98300.72;;;12.33;100.00
28310;BME280;15571;50.974;13.936;2024-02-23T08:27:36;98295.38;;;12.34;100.00
28310;BME280;15571;50.974;13.936;2024-02-23T08:30:38;98293.34;;;12.41;100.00
28310;BME280;15571;50.974;13.936;2024-02-23T08:33:40;98294.28;;;12.40;100.00
28310;BME280;15571;50.974;13.936;2024-02-23T08:36:42;98287.19;;;12.42;100.00
28310;BME280;15571;50.974;13.936;2024-02-23T08:39:44;98292.44;;;12.42;100.00
28310;BME280;15571;50.974;13.936;2024-02-23T08:42:50;98291.78;;;12.37;100.00
28310;BME280;15571;50.974;13.936;2024-02-23T08:45:52;98282.06;;;12.39;100.00
28310;BME280;15571;50.974;13.936;2024-02-23T08:48:54;98288.16;;;12.39;100.00
28310;BME280;15571;50.974;13.936;2024-02-23T08:51:56;98283.91;;;12.37;100.00
28310;BME280;15571;50.974;13.936;2024-02-23T08:54:59;98290.00;;;12.37;100.00
28310;BME280;15571;50.974;13.936;2024-02-23T08:58:03;98298.59;;;12.41;100.00
28310;BME280;15571;50.974;13.936;2024-02-23T09:01:06;98289.81;;;12.42;100.00
28310;BME280;15571;50.974;13.936;2024-02-23T09:04:09;98294.91;;;12.45;100.00
28310;BME280;15571;50.974;13.936;2024-02-23T09:07:11;98314.72;;;12.52;100.00
28310;BME280;15571;50.974;13.936;2024-02-23T09:10:13;98315.16;;;12.62;100.00
28310;BME280;15571;50.974;13.936;2024-02-23T09:13:16;98321.63;;;12.74;100.00
28310;BME280;15571;50.974;13.936;2024-02-23T09:16:20;98320.44;;;12.81;100.00
28310;BME280;15571;50.974;13.936;2024-02-23T09:19:23;98328.81;;;12.89;100.00
28310;BME280;15571;50.974;13.936;2024-02-23T09:22:28;98325.69;;;13.00;100.00
28310;BME280;15571;50.974;13.936;2024-02-23T09:25:30;98335.94;;;13.06;100.00
28310;BME280;15571;50.974;13.936;2024-02-23T09:28:33;98337.50;;;13.11;100.00
28310;BME280;15571;50.974;13.936;2024-02-23T09:31:35;98346.66;;;13.02;100.00
28310;BME280;15571;50.974;13.936;2024-02-23T09:34:37;98348.56;;;12.98;100.00
28310;BME280;15571;50.974;13.936;2024-02-23T09:37:46;98336.91;;;13.04;100.00
28310;BME280;15571;50.974;13.936;2024-02-23T09:40:47;98336.69;;;13.08;100.00
28310;BME280;15571;50.974;13.936;2024-02-23T09:43:53;98335.06;;;13.06;100.00
28310;BME280;15571;50.974;13.936;2024-02-23T09:46:58;98342.53;;;13.15;100.00
28310;BME280;15571;50.974;13.936;2024-02-23T09:50:02;98343.75;;;13.08;100.00
28310;BME280;15571;50.974;13.936;2024-02-23T09:53:05;98349.84;;;13.08;100.00
28310;BME280;15571;50.974;13.936;2024-02-23T09:56:09;98337.22;;;13.17;100.00
28310;BME280;15571;50.974;13.936;2024-02-23T09:59:13;98341.59;;;13.16;100.00
28310;BME280;15571;50.974;13.936;2024-02-23T10:02:16;98333.84;;;13.13;100.00
28310;BME280;15571;50.974;13.936;2024-02-23T10:05:18;98329.13;;;13.21;100.00
28310;BME280;15571;50.974;13.936;2024-02-23T10:08:23;98340.25;;;13.27;100.00
28310;BME280;15571;50.974;13.936;2024-02-23T10:11:25;98340.91;;;13.32;100.00
28310;BME280;15571;50.974;13.936;2024-02-23T10:14:28;98340.91;;;13.32;99.04
28310;BME280;15571;50.974;13.936;2024-02-23T10:17:31;98351.56;;;13.29;100.00
28310;BME280;15571;50.974;13.936;2024-02-23T10:20:35;98348.78;;;13.32;100.00
28310;BME280;15571;50.974;13.936;2024-02-23T10:23:39;98354.41;;;13.43;100.00
28310;BME280;15571;50.974;13.936;2024-02-23T10:26:42;98365.66;;;13.47;100.00
28310;BME280;15571;50.974;13.936;2024-02-23T10:29:48;98366.88;;;13.57;99.64
28310;BME280;15571;50.974;13.936;2024-02-23T10:32:50;98363.63;;;13.71;95.35
28310;BME280;15571;50.974;13.936;2024-02-23T10:35:59;98369.88;;;13.68;94.36
28310;BME280;15571;50.974;13.936;2024-02-23T10:39:02;98378.53;;;13.70;94.24
28310;BME280;15571;50.974;13.936;2024-02-23T10:42:06;98385.19;;;13.78;93.89
28310;BME280;15571;50.974;13.936;2024-02-23T10:45:11;98379.34;;;13.90;93.58
28310;BME280;15571;50.974;13.936;2024-02-23T10:48:14;98391.16;;;13.81;93.99
28310;BME280;15571;50.974;13.936;2024-02-23T10:51:16;98389.78;;;13.92;94.19
28310;BME280;15571;50.974;13.936;2024-02-23T10:54:20;98388.25;;;13.88;92.64
28310;BME280;15571;50.974;13.936;2024-02-23T10:57:23;98399.38;;;13.93;92.19
28310;BME280;15571;50.974;13.936;2024-02-23T11:00:26;98408.50;;;13.85;88.91
28310;BME280;15571;50.974;13.936;2024-02-23T11:03:32;98424.09;;;13.71;86.79
28310;BME280;15571;50.974;13.936;2024-02-23T11:06:34;98425.41;;;13.99;87.70
28310;BME280;15571;50.974;13.936;2024-02-23T11:09:36;98424.50;;;14.00;88.29
28310;BME280;15571;50.974;13.936;2024-02-23T11:12:38;98425.28;;;13.83;87.77
28310;BME280;15571;50.974;13.936;2024-02-23T11:15:42;98411.38;;;13.98;89.13
28310;BME280;15571;50.974;13.936;2024-02-23T11:18:44;98417.28;;;14.04;87.65
28310;BME280;15571;50.974;13.936;2024-02-23T11:21:52;98416.44;;;14.03;89.28
28310;BME280;15571;50.974;13.936;2024-02-23T11:24:59;98419.75;;;14.07;85.92
28310;BME280;15571;50.974;13.936;2024-02-23T11:28:01;98424.19;;;14.06;84.99
28310;BME280;15571;50.974;13.936;2024-02-23T11:31:09;98429.06;;;14.14;85.13
28310;BME280;15571;50.974;13.936;2024-02-23T11:34:12;98432.47;;;14.16;82.10
28310;BME280;15571;50.974;13.936;2024-02-23T11:37:14;98419.94;;;14.21;83.55
28310;BME280;15571;50.974;13.936;2024-02-23T11:40:20;98418.00;;;14.25;78.91
28310;BME280;15571;50.974;13.936;2024-02-23T11:43:22;98406.88;;;14.20;77.88
28310;BME280;15571;50.974;13.936;2024-02-23T11:46:25;98416.44;;;14.03;81.36
28310;BME280;15571;50.974;13.936;2024-02-23T11:49:27;98418.84;;;14.08;81.61
28310;BME280;15571;50.974;13.936;2024-02-23T11:52:29;98415.84;;;14.15;79.38
28310;BME280;15571;50.974;13.936;2024-02-23T11:55:32;98418.56;;;14.14;81.08
28310;BME280;15571;50.974;13.936;2024-02-23T11:58:34;98411.41;;;14.16;81.10
28310;BME280;15571;50.974;13.936;2024-02-23T12:01:37;98412.28;;;14.16;81.14
28310;BME280;15571;50.974;13.936;2024-02-23T12:04:39;98416.25;;;14.25;80.26
28310;BME280;15571;50.974;13.936;2024-02-23T12:07:41;98412.88;;;14.22;79.89
28310;BME280;15571;50.974;13.936;2024-02-23T12:10:44;98413.69;;;14.24;79.38
28310;BME280;15571;50.974;13.936;2024-02-23T12:13:47;98416.16;;;14.27;81.29
28310;BME280;15571;50.974;13.936;2024-02-23T12:16:53;98422.03;;;14.32;81.44
28310;BME280;15571;50.974;13.936;2024-02-23T12:19:57;98418.25;;;14.38;78.31
28310;BME280;15571;50.974;13.936;2024-02-23T12:23:00;98414.78;;;14.37;79.10
28310;BME280;15571;50.974;13.936;2024-02-23T12:26:05;98419.81;;;14.42;80.93
28310;BME280;15571;50.974;13.936;2024-02-23T12:29:07;98405.16;;;14.54;79.65
28310;BME280;15571;50.974;13.936;2024-02-23T12:32:12;98410.09;;;14.60;86.69
28310;BME280;15571;50.974;13.936;2024-02-23T12:35:14;98399.44;;;14.63;94.34
28310;BME280;15571;50.974;13.936;2024-02-23T12:38:19;98397.81;;;14.60;96.76
28310;BME280;15571;50.974;13.936;2024-02-23T12:41:22;98390.00;;;14.59;98.32
28310;BME280;15571;50.974;13.936;2024-02-23T12:44:24;98384.09;;;14.54;100.00
28310;BME280;15571;50.974;13.936;2024-02-23T12:47:27;98389.22;;;14.57;100.00
28310;BME280;15571;50.974;13.936;2024-02-23T12:50:29;98387.34;;;14.41;100.00
28310;BME280;15571;50.974;13.936;2024-02-23T12:53:33;98394.31;;;14.42;100.00
28310;BME280;15571;50.974;13.936;2024-02-23T12:56:36;98394.72;;;14.35;100.00
28310;BME280;15571;50.974;13.936;2024-02-23T12:59:38;98400.97;;;14.32;100.00
28310;BME280;15571;50.974;13.936;2024-02-23T13:02:42;98399.50;;;14.26;100.00
28310;BME280;15571;50.974;13.936;2024-02-23T13:05:44;98411.50;;;14.32;100.00
28310;BME280;15571;50.974;13.936;2024-02-23T13:08:48;98415.84;;;14.33;97.23
28310;BME280;15571;50.974;13.936;2024-02-23T13:11:50;98409.97;;;14.28;96.70
28310;BME280;15571;50.974;13.936;2024-02-23T13:14:52;98416.78;;;14.32;94.42
28310;BME280;15571;50.974;13.936;2024-02-23T13:17:58;98423.91;;;14.30;89.12
28310;BME280;15571;50.974;13.936;2024-02-23T13:21:00;98417.88;;;14.28;90.33
28310;BME280;15571;50.974;13.936;2024-02-23T13:24:04;98402.88;;;14.30;89.20
28310;BME280;15571;50.974;13.936;2024-02-23T13:27:06;98403.47;;;14.35;89.30
28310;BME280;15571;50.974;13.936;2024-02-23T13:30:12;98398.56;;;14.27;92.61
28310;BME280;15571;50.974;13.936;2024-02-23T13:33:18;98402.00;;;14.29;90.75
28310;BME280;15571;50.974;13.936;2024-02-23T13:36:21;98399.13;;;14.34;90.10
28310;BME280;15571;50.974;13.936;2024-02-23T13:39:23;98403.78;;;14.29;90.23
28310;BME280;15571;50.974;13.936;2024-02-23T13:42:25;98392.47;;;14.27;87.79
28310;BME280;15571;50.974;13.936;2024-02-23T13:45:27;98400.00;;;14.35;89.94
28310;BME280;15571;50.974;13.936;2024-02-23T13:48:30;98394.31;;;14.25;87.54
28310;BME280;15571;50.974;13.936;2024-02-23T13:51:32;98404.06;;;14.23;88.03
28310;BME280;15571;50.974;13.936;2024-02-23T13:54:35;98401.91;;;14.13;86.54
28310;BME280;15571;50.974;13.936;2024-02-23T13:57:37;98401.34;;;14.07;87.73
28310;BME280;15571;50.974;13.936;2024-02-23T14:00:39;98405.69;;;14.08;91.14
28310;BME280;15571;50.974;13.936;2024-02-23T14:03:42;98403.91;;;14.08;89.78
28310;BME280;15571;50.974;13.936;2024-02-23T14:06:44;98400.31;;;13.92;89.22
28310;BME280;15571;50.974;13.936;2024-02-23T14:09:48;98401.28;;;14.08;86.98
28310;BME280;15571;50.974;13.936;2024-02-23T14:12:50;98404.97;;;14.04;86.21
28310;BME280;15571;50.974;13.936;2024-02-23T14:15:52;98411.78;;;13.91;88.83
28310;BME280;15571;50.974;13.936;2024-02-23T14:18:55;98411.34;;;13.81;89.47
28310;BME280;15571;50.974;13.936;2024-02-23T14:21:57;98416.34;;;13.68;90.36
28310;BME280;15571;50.974;13.936;2024-02-23T14:24:59;98425.72;;;13.74;90.22
28310;BME280;15571;50.974;13.936;2024-02-23T14:28:01;98433.06;;;13.67;92.61
28310;BME280;15571;50.974;13.936;2024-02-23T14:31:03;98429.00;;;13.60;92.70
28310;BME280;15571;50.974;13.936;2024-02-23T14:34:06;98433.41;;;13.59;93.02
28310;BME280;15571;50.974;13.936;2024-02-23T14:37:09;98426.22;;;13.63;93.10
28310;BME280;15571;50.974;13.936;2024-02-23T14:40:14;98431.69;;;13.58;96.06
28310;BME280;15571;50.974;13.936;2024-02-23T14:43:18;98428.84;;;13.63;96.47
28310;BME280;15571;50.974;13.936;2024-02-23T14:46:26;98423.53;;;13.45;100.00
28310;BME280;15571;50.974;13.936;2024-02-23T14:49:30;98419.78;;;13.70;98.38
28310;BME280;15571;50.974;13.936;2024-02-23T14:52:31;98424.88;;;13.54;100.00
28310;BME280;15571;50.974;13.936;2024-02-23T14:55:33;98419.63;;;13.54;100.00
28310;BME280;15571;50.974;13.936;2024-02-23T14:58:35;98419.69;;;13.52;100.00
28310;BME280;15571;50.974;13.936;2024-02-23T15:01:39;98419.97;;;13.46;100.00
28310;BME280;15571;50.974;13.936;2024-02-23T15:04:43;98427.28;;;13.39;100.00
28310;BME280;15571;50.974;13.936;2024-02-23T15:07:45;98424.72;;;13.38;100.00
28310;BME280;15571;50.974;13.936;2024-02-23T15:10:47;98422.91;;;13.38;100.00
28310;BME280;15571;50.974;13.936;2024-02-23T15:13:52;98412.91;;;13.28;100.00
28310;BME280;15571;50.974;13.936;2024-02-23T15:16:58;98399.47;;;13.34;100.00
28310;BME280;15571;50.974;13.936;2024-02-23T15:20:01;98402.19;;;13.32;100.00
28310;BME280;15571;50.974;13.936;2024-02-23T15:23:03;98398.72;;;13.32;100.00
28310;BME280;15571;50.974;13.936;2024-02-23T15:26:05;98414.75;;;13.26;100.00
28310;BME280;15571;50.974;13.936;2024-02-23T15:29:07;98416.47;;;13.27;100.00
28310;BME280;15571;50.974;13.936;2024-02-23T15:32:09;98426.59;;;13.15;100.00
28310;BME280;15571;50.974;13.936;2024-02-23T15:35:13;98427.69;;;13.11;100.00
28310;BME280;15571;50.974;13.936;2024-02-23T15:38:15;98427.81;;;13.08;100.00
28310;BME280;15571;50.974;13.936;2024-02-23T15:41:17;98417.84;;;12.96;100.00
28310;BME280;15571;50.974;13.936;2024-02-23T15:44:19;98415.16;;;12.97;100.00
28310;BME280;15571;50.974;13.936;2024-02-23T15:47:21;98406.75;;;12.89;100.00